sensor_id;sensor_type;location;lat;lon;timestamp;P1;durP1;ratioP1;P2;durP2;ratioP2
10847;SDS011;5477;48.806;9.154;2023-02-12T00:01:22;20.53;;;13.67;;
10847;SDS011;5477;48.806;9.154;2023-02-12T00:03:51;19.80;;;14.00;;
10847;SDS011;5477;48.806;9.154;2023-02-12T00:06:19;19.80;;;13.63;;
10847;SDS011;5477;48.806;9.154;2023-02-12T00:08:49;22.83;;;13.97;;
10847;SDS011;5477;48.806;9.154;2023-02-12T00:11:19;19.33;;;13.77;;
10847;SDS011;5477;48.806;9.154;2023-02-12T00:13:49;19.63;;;13.70;;
10847;SDS011;5477;48.806;9.154;2023-02-12T00:16:19;19.10;;;14.07;;
10847;SDS011;5477;48.806;9.154;2023-02-12T00:18:50;19.67;;;13.67;;
10847;SDS011;5477;48.806;9.154;2023-02-12T00:21:18;18.17;;;13.30;;
10847;SDS011;5477;48.806;9.154;2023-02-12T00:23:48;16.07;;;11.93;;
10847;SDS011;5477;48.806;9.154;2023-02-12T00:26:17;17.00;;;12.37;;
10847;SDS011;5477;48.806;9.154;2023-02-12T00:28:48;19.33;;;12.67;;
10847;SDS011;5477;48.806;9.154;2023-02-12T00:31:18;17.23;;;11.97;;
10847;SDS011;5477;48.806;9.154;2023-02-12T00:33:47;17.37;;;12.53;;
10847;SDS011;5477;48.806;9.154;2023-02-12T00:36:16;17.43;;;11.73;;
10847;SDS011;5477;48.806;9.154;2023-02-12T00:38:45;18.07;;;12.00;;
10847;SDS011;5477;48.806;9.154;2023-02-12T00:41:16;18.13;;;11.93;;
10847;SDS011;5477;48.806;9.154;2023-02-12T00:43:44;17.40;;;11.80;;
10847;SDS011;5477;48.806;9.154;2023-02-12T00:46:12;15.67;;;11.37;;
10847;SDS011;5477;48.806;9.154;2023-02-12T00:48:42;18.37;;;12.33;;
10847;SDS011;5477;48.806;9.154;2023-02-12T00:51:10;19.40;;;12.63;;
10847;SDS011;5477;48.806;9.154;2023-02-12T00:53:38;21.03;;;12.13;;
10847;SDS011;5477;48.806;9.154;2023-02-12T00:56:06;14.13;;;11.53;;
10847;SDS011;5477;48.806;9.154;2023-02-12T00:58:35;16.27;;;12.27;;
10847;SDS011;5477;48.806;9.154;2023-02-12T01:01:05;14.70;;;11.50;;
10847;SDS011;5477;48.806;9.154;2023-02-12T01:03:34;17.87;;;12.20;;
10847;SDS011;5477;48.806;9.154;2023-02-12T01:06:02;19.37;;;11.43;;
10847;SDS011;5477;48.806;9.154;2023-02-12T01:08:31;17.40;;;10.97;;
10847;SDS011;5477;48.806;9.154;2023-02-12T01:11:00;15.80;;;12.07;;
10847;SDS011;5477;48.806;9.154;2023-02-12T01:13:30;14.97;;;11.23;;
10847;SDS011;5477;48.806;9.154;2023-02-12T01:16:04;16.60;;;12.20;;
10847;SDS011;5477;48.806;9.154;2023-02-12T01:18:36;15.20;;;11.77;;
10847;SDS011;5477;48.806;9.154;2023-02-12T01:21:09;19.60;;;12.57;;
10847;SDS011;5477;48.806;9.154;2023-02-12T01:23:38;18.17;;;11.97;;
10847;SDS011;5477;48.806;9.154;2023-02-12T01:26:06;17.80;;;12.67;;
10847;SDS011;5477;48.806;9.154;2023-02-12T01:28:36;16.00;;;11.73;;
10847;SDS011;5477;48.806;9.154;2023-02-12T01:31:08;18.50;;;12.00;;
10847;SDS011;5477;48.806;9.154;2023-02-12T01:33:36;17.37;;;12.57;;
10847;SDS011;5477;48.806;9.154;2023-02-12T01:36:05;17.47;;;12.83;;
10847;SDS011;5477;48.806;9.154;2023-02-12T01:38:33;18.70;;;12.17;;
10847;SDS011;5477;48.806;9.154;2023-02-12T01:41:02;17.43;;;11.80;;
10847;SDS011;5477;48.806;9.154;2023-02-12T01:43:30;17.50;;;12.50;;
10847;SDS011;5477;48.806;9.154;2023-02-12T01:45:59;16.97;;;11.87;;
10847;SDS011;5477;48.806;9.154;2023-02-12T01:48:31;18.10;;;13.00;;
10847;SDS011;5477;48.806;9.154;2023-02-12T01:51:02;17.37;;;12.03;;
10847;SDS011;5477;48.806;9.154;2023-02-12T01:53:32;16.43;;;11.77;;
10847;SDS011;5477;48.806;9.154;2023-02-12T01:56:05;18.20;;;11.53;;
10847;SDS011;5477;48.806;9.154;2023-02-12T01:58:34;18.20;;;12.77;;
10847;SDS011;5477;48.806;9.154;2023-02-12T02:01:09;17.57;;;11.97;;
10847;SDS011;5477;48.806;9.154;2023-02-12T02:03:43;16.27;;;11.77;;
10847;SDS011;5477;48.806;9.154;2023-02-12T02:06:16;19.47;;;13.70;;
10847;SDS011;5477;48.806;9.154;2023-02-12T02:08:48;20.27;;;13.40;;
10847;SDS011;5477;48.806;9.154;2023-02-12T02:11:17;20.80;;;12.77;;
10847;SDS011;5477;48.806;9.154;2023-02-12T02:14:04;20.00;;;13.60;;
10847;SDS011;5477;48.806;9.154;2023-02-12T02:23:12;19.47;;;13.27;;
10847;SDS011;5477;48.806;9.154;2023-02-12T02:26:03;19.70;;;12.70;;
10847;SDS011;5477;48.806;9.154;2023-02-12T02:29:00;16.83;;;12.67;;
10847;SDS011;5477;48.806;9.154;2023-02-12T02:31:42;16.43;;;11.90;;
10847;SDS011;5477;48.806;9.154;2023-02-12T02:34:15;16.50;;;11.43;;
10847;SDS011;5477;48.806;9.154;2023-02-12T02:36:48;15.97;;;11.60;;
10847;SDS011;5477;48.806;9.154;2023-02-12T02:39:27;16.30;;;11.63;;
10847;SDS011;5477;48.806;9.154;2023-02-12T02:42:03;18.13;;;12.40;;
10847;SDS011;5477;48.806;9.154;2023-02-12T02:44:38;17.47;;;12.13;;
10847;SDS011;5477;48.806;9.154;2023-02-12T02:47:11;18.90;;;12.50;;
10847;SDS011;5477;48.806;9.154;2023-02-12T02:49:43;17.03;;;12.27;;
10847;SDS011;5477;48.806;9.154;2023-02-12T02:52:15;21.23;;;13.60;;
10847;SDS011;5477;48.806;9.154;2023-02-12T02:54:47;18.80;;;13.57;;
10847;SDS011;5477;48.806;9.154;2023-02-12T02:57:20;18.77;;;13.97;;
10847;SDS011;5477;48.806;9.154;2023-02-12T02:59:51;19.10;;;13.87;;
10847;SDS011;5477;48.806;9.154;2023-02-12T03:02:24;21.97;;;14.50;;
10847;SDS011;5477;48.806;9.154;2023-02-12T03:04:55;21.03;;;15.37;;
10847;SDS011;5477;48.806;9.154;2023-02-12T03:07:28;20.20;;;13.87;;
10847;SDS011;5477;48.806;9.154;2023-02-12T03:10:03;18.23;;;13.50;;
10847;SDS011;5477;48.806;9.154;2023-02-12T03:12:35;21.70;;;14.13;;
10847;SDS011;5477;48.806;9.154;2023-02-12T03:15:07;20.20;;;13.10;;
10847;SDS011;5477;48.806;9.154;2023-02-12T03:17:39;18.60;;;13.47;;
10847;SDS011;5477;48.806;9.154;2023-02-12T03:20:11;18.60;;;12.53;;
10847;SDS011;5477;48.806;9.154;2023-02-12T03:22:45;18.37;;;12.93;;
10847;SDS011;5477;48.806;9.154;2023-02-12T03:25:18;15.30;;;11.40;;
10847;SDS011;5477;48.806;9.154;2023-02-12T03:27:51;16.43;;;11.90;;
10847;SDS011;5477;48.806;9.154;2023-02-12T03:30:27;16.53;;;11.67;;
10847;SDS011;5477;48.806;9.154;2023-02-12T03:33:07;17.00;;;12.27;;
10847;SDS011;5477;48.806;9.154;2023-02-12T03:35:45;17.63;;;12.63;;
10847;SDS011;5477;48.806;9.154;2023-02-12T03:38:25;19.13;;;12.67;;
10847;SDS011;5477;48.806;9.154;2023-02-12T03:41:02;17.47;;;12.13;;
10847;SDS011;5477;48.806;9.154;2023-02-12T03:43:33;19.17;;;13.07;;
10847;SDS011;5477;48.806;9.154;2023-02-12T03:46:13;18.97;;;13.50;;
10847;SDS011;5477;48.806;9.154;2023-02-12T03:48:50;21.80;;;13.97;;
10847;SDS011;5477;48.806;9.154;2023-02-12T03:51:25;22.93;;;14.60;;
10847;SDS011;5477;48.806;9.154;2023-02-12T03:53:59;18.47;;;13.83;;
10847;SDS011;5477;48.806;9.154;2023-02-12T03:56:29;19.60;;;13.47;;
10847;SDS011;5477;48.806;9.154;2023-02-12T03:59:03;21.67;;;14.57;;
10847;SDS011;5477;48.806;9.154;2023-02-12T04:01:31;21.67;;;14.53;;
10847;SDS011;5477;48.806;9.154;2023-02-12T04:04:03;18.50;;;12.73;;
10847;SDS011;5477;48.806;9.154;2023-02-12T04:06:33;19.23;;;13.27;;
10847;SDS011;5477;48.806;9.154;2023-02-12T04:09:02;22.27;;;13.97;;
10847;SDS011;5477;48.806;9.154;2023-02-12T04:11:33;20.37;;;13.23;;
10847;SDS011;5477;48.806;9.154;2023-02-12T04:14:13;18.80;;;11.80;;
10847;SDS011;5477;48.806;9.154;2023-02-12T04:16:50;17.47;;;12.07;;
10847;SDS011;5477;48.806;9.154;2023-02-12T04:19:26;18.77;;;12.63;;
10847;SDS011;5477;48.806;9.154;2023-02-12T04:22:04;20.67;;;13.67;;
10847;SDS011;5477;48.806;9.154;2023-02-12T04:24:43;19.70;;;13.50;;
10847;SDS011;5477;48.806;9.154;2023-02-12T04:27:17;20.60;;;13.83;;
10847;SDS011;5477;48.806;9.154;2023-02-12T04:29:50;18.50;;;13.40;;
10847;SDS011;5477;48.806;9.154;2023-02-12T04:32:23;21.27;;;14.13;;
10847;SDS011;5477;48.806;9.154;2023-02-12T04:35:02;19.80;;;14.27;;
10847;SDS011;5477;48.806;9.154;2023-02-12T04:37:37;19.87;;;13.47;;
10847;SDS011;5477;48.806;9.154;2023-02-12T04:40:10;19.73;;;14.33;;
10847;SDS011;5477;48.806;9.154;2023-02-12T04:42:41;27.03;;;19.00;;
10847;SDS011;5477;48.806;9.154;2023-02-12T04:45:09;27.43;;;20.03;;
10847;SDS011;5477;48.806;9.154;2023-02-12T04:47:38;31.23;;;20.53;;
10847;SDS011;5477;48.806;9.154;2023-02-12T04:50:08;34.00;;;21.53;;
10847;SDS011;5477;48.806;9.154;2023-02-12T04:52:37;27.50;;;20.30;;
10847;SDS011;5477;48.806;9.154;2023-02-12T04:55:05;27.43;;;19.83;;
10847;SDS011;5477;48.806;9.154;2023-02-12T04:57:33;31.03;;;20.53;;
10847;SDS011;5477;48.806;9.154;2023-02-12T05:00:01;28.17;;;20.13;;
10847;SDS011;5477;48.806;9.154;2023-02-12T05:02:31;34.20;;;21.60;;
10847;SDS011;5477;48.806;9.154;2023-02-12T05:05:00;25.93;;;20.57;;
10847;SDS011;5477;48.806;9.154;2023-02-12T05:07:29;28.17;;;20.53;;
10847;SDS011;5477;48.806;9.154;2023-02-12T05:09:57;28.97;;;20.20;;
10847;SDS011;5477;48.806;9.154;2023-02-12T05:12:25;31.33;;;20.37;;
10847;SDS011;5477;48.806;9.154;2023-02-12T05:14:53;27.07;;;19.97;;
10847;SDS011;5477;48.806;9.154;2023-02-12T05:17:21;29.70;;;20.87;;
10847;SDS011;5477;48.806;9.154;2023-02-12T05:19:50;26.93;;;19.60;;
10847;SDS011;5477;48.806;9.154;2023-02-12T05:22:18;28.63;;;20.63;;
10847;SDS011;5477;48.806;9.154;2023-02-12T05:24:47;32.70;;;21.33;;
10847;SDS011;5477;48.806;9.154;2023-02-12T05:27:15;29.60;;;21.27;;
10847;SDS011;5477;48.806;9.154;2023-02-12T05:29:43;30.60;;;21.03;;
10847;SDS011;5477;48.806;9.154;2023-02-12T05:32:11;30.93;;;20.80;;
10847;SDS011;5477;48.806;9.154;2023-02-12T05:34:39;25.83;;;19.60;;
10847;SDS011;5477;48.806;9.154;2023-02-12T05:37:07;29.30;;;20.63;;
10847;SDS011;5477;48.806;9.154;2023-02-12T05:39:35;27.50;;;20.13;;
10847;SDS011;5477;48.806;9.154;2023-02-12T05:42:04;26.37;;;19.97;;
10847;SDS011;5477;48.806;9.154;2023-02-12T05:44:32;28.47;;;19.47;;
10847;SDS011;5477;48.806;9.154;2023-02-12T05:47:00;27.13;;;20.67;;
10847;SDS011;5477;48.806;9.154;2023-02-12T05:49:28;27.90;;;20.03;;
10847;SDS011;5477;48.806;9.154;2023-02-12T05:51:56;29.57;;;19.97;;
10847;SDS011;5477;48.806;9.154;2023-02-12T05:54:27;28.70;;;20.47;;
10847;SDS011;5477;48.806;9.154;2023-02-12T05:56:55;27.43;;;18.83;;
10847;SDS011;5477;48.806;9.154;2023-02-12T05:59:24;25.73;;;19.43;;
10847;SDS011;5477;48.806;9.154;2023-02-12T06:01:52;28.07;;;20.03;;
10847;SDS011;5477;48.806;9.154;2023-02-12T06:04:21;29.57;;;20.17;;
10847;SDS011;5477;48.806;9.154;2023-02-12T06:06:50;25.47;;;18.90;;
10847;SDS011;5477;48.806;9.154;2023-02-12T06:09:18;27.00;;;17.80;;
10847;SDS011;5477;48.806;9.154;2023-02-12T06:11:46;23.73;;;16.67;;
10847;SDS011;5477;48.806;9.154;2023-02-12T06:14:15;25.17;;;17.47;;
10847;SDS011;5477;48.806;9.154;2023-02-12T06:16:46;25.50;;;17.80;;
10847;SDS011;5477;48.806;9.154;2023-02-12T06:19:16;23.50;;;16.43;;
10847;SDS011;5477;48.806;9.154;2023-02-12T06:21:45;25.20;;;17.53;;
10847;SDS011;5477;48.806;9.154;2023-02-12T06:24:15;25.50;;;17.63;;
10847;SDS011;5477;48.806;9.154;2023-02-12T06:26:43;22.03;;;15.33;;
10847;SDS011;5477;48.806;9.154;2023-02-12T06:29:16;22.60;;;15.40;;
10847;SDS011;5477;48.806;9.154;2023-02-12T06:31:46;26.43;;;16.57;;
10847;SDS011;5477;48.806;9.154;2023-02-12T06:34:15;19.47;;;14.63;;
10847;SDS011;5477;48.806;9.154;2023-02-12T06:36:44;24.83;;;16.07;;
10847;SDS011;5477;48.806;9.154;2023-02-12T06:39:13;20.27;;;15.67;;
10847;SDS011;5477;48.806;9.154;2023-02-12T06:41:42;21.43;;;15.43;;
10847;SDS011;5477;48.806;9.154;2023-02-12T06:44:10;24.17;;;16.70;;
10847;SDS011;5477;48.806;9.154;2023-02-12T06:46:39;21.57;;;15.83;;
10847;SDS011;5477;48.806;9.154;2023-02-12T06:49:10;26.17;;;18.83;;
10847;SDS011;5477;48.806;9.154;2023-02-12T06:51:39;24.23;;;18.60;;
10847;SDS011;5477;48.806;9.154;2023-02-12T06:54:11;24.27;;;17.43;;
10847;SDS011;5477;48.806;9.154;2023-02-12T06:56:40;28.50;;;19.43;;
10847;SDS011;5477;48.806;9.154;2023-02-12T06:59:10;27.67;;;20.03;;
10847;SDS011;5477;48.806;9.154;2023-02-12T07:01:40;28.50;;;20.37;;
10847;SDS011;5477;48.806;9.154;2023-02-12T07:04:08;30.43;;;19.70;;
10847;SDS011;5477;48.806;9.154;2023-02-12T07:06:39;29.10;;;20.87;;
10847;SDS011;5477;48.806;9.154;2023-02-12T07:09:07;27.27;;;19.87;;
10847;SDS011;5477;48.806;9.154;2023-02-12T07:11:35;28.63;;;19.43;;
10847;SDS011;5477;48.806;9.154;2023-02-12T07:14:04;28.27;;;19.80;;
10847;SDS011;5477;48.806;9.154;2023-02-12T07:16:32;27.83;;;19.10;;
10847;SDS011;5477;48.806;9.154;2023-02-12T07:19:00;28.40;;;19.50;;
10847;SDS011;5477;48.806;9.154;2023-02-12T07:21:29;27.07;;;20.10;;
10847;SDS011;5477;48.806;9.154;2023-02-12T07:23:58;27.47;;;19.57;;
10847;SDS011;5477;48.806;9.154;2023-02-12T07:26:26;26.73;;;20.00;;
10847;SDS011;5477;48.806;9.154;2023-02-12T07:28:55;28.50;;;20.77;;
10847;SDS011;5477;48.806;9.154;2023-02-12T07:31:23;33.63;;;22.83;;
10847;SDS011;5477;48.806;9.154;2023-02-12T07:33:52;36.43;;;23.63;;
10847;SDS011;5477;48.806;9.154;2023-02-12T07:36:21;31.83;;;21.80;;
10847;SDS011;5477;48.806;9.154;2023-02-12T07:38:52;31.10;;;21.40;;
10847;SDS011;5477;48.806;9.154;2023-02-12T07:41:21;31.03;;;21.00;;
10847;SDS011;5477;48.806;9.154;2023-02-12T07:43:52;27.43;;;20.33;;
10847;SDS011;5477;48.806;9.154;2023-02-12T07:46:22;28.60;;;20.73;;
10847;SDS011;5477;48.806;9.154;2023-02-12T07:48:55;32.17;;;21.93;;
10847;SDS011;5477;48.806;9.154;2023-02-12T07:51:24;30.33;;;21.37;;
10847;SDS011;5477;48.806;9.154;2023-02-12T07:53:55;30.97;;;21.23;;
10847;SDS011;5477;48.806;9.154;2023-02-12T07:56:24;32.70;;;22.77;;
10847;SDS011;5477;48.806;9.154;2023-02-12T07:58:57;29.93;;;20.60;;
10847;SDS011;5477;48.806;9.154;2023-02-12T08:01:26;27.60;;;21.37;;
10847;SDS011;5477;48.806;9.154;2023-02-12T08:03:57;29.90;;;21.63;;
10847;SDS011;5477;48.806;9.154;2023-02-12T08:06:27;29.07;;;22.10;;
10847;SDS011;5477;48.806;9.154;2023-02-12T08:08:59;29.33;;;21.53;;
10847;SDS011;5477;48.806;9.154;2023-02-12T08:11:30;30.10;;;21.73;;
10847;SDS011;5477;48.806;9.154;2023-02-12T08:13:59;29.27;;;21.10;;
10847;SDS011;5477;48.806;9.154;2023-02-12T08:16:27;32.27;;;21.97;;
10847;SDS011;5477;48.806;9.154;2023-02-12T08:18:57;30.93;;;21.77;;
10847;SDS011;5477;48.806;9.154;2023-02-12T08:21:42;32.33;;;21.77;;
10847;SDS011;5477;48.806;9.154;2023-02-12T08:24:11;29.87;;;22.20;;
10847;SDS011;5477;48.806;9.154;2023-02-12T08:26:39;31.20;;;23.10;;
10847;SDS011;5477;48.806;9.154;2023-02-12T08:29:09;29.90;;;21.73;;
10847;SDS011;5477;48.806;9.154;2023-02-12T08:31:39;34.50;;;24.93;;
10847;SDS011;5477;48.806;9.154;2023-02-12T08:34:14;59.43;;;37.07;;
10847;SDS011;5477;48.806;9.154;2023-02-12T08:36:45;39.63;;;27.40;;
10847;SDS011;5477;48.806;9.154;2023-02-12T08:39:16;33.97;;;23.93;;
10847;SDS011;5477;48.806;9.154;2023-02-12T08:41:45;35.30;;;25.03;;
10847;SDS011;5477;48.806;9.154;2023-02-12T08:44:13;32.07;;;23.40;;
10847;SDS011;5477;48.806;9.154;2023-02-12T08:46:43;34.93;;;24.97;;
10847;SDS011;5477;48.806;9.154;2023-02-12T08:49:13;34.77;;;25.80;;
10847;SDS011;5477;48.806;9.154;2023-02-12T08:51:43;31.70;;;23.37;;
10847;SDS011;5477;48.806;9.154;2023-02-12T08:54:14;35.23;;;23.47;;
10847;SDS011;5477;48.806;9.154;2023-02-12T08:56:44;35.13;;;23.60;;
10847;SDS011;5477;48.806;9.154;2023-02-12T08:59:13;30.37;;;22.50;;
10847;SDS011;5477;48.806;9.154;2023-02-12T09:01:41;33.93;;;23.33;;
10847;SDS011;5477;48.806;9.154;2023-02-12T09:04:11;32.47;;;23.57;;
10847;SDS011;5477;48.806;9.154;2023-02-12T09:06:44;34.10;;;24.17;;
10847;SDS011;5477;48.806;9.154;2023-02-12T09:09:12;34.17;;;23.53;;
10847;SDS011;5477;48.806;9.154;2023-02-12T09:11:42;34.97;;;25.07;;
10847;SDS011;5477;48.806;9.154;2023-02-12T09:14:11;33.73;;;23.87;;
10847;SDS011;5477;48.806;9.154;2023-02-12T09:16:41;35.20;;;24.40;;
10847;SDS011;5477;48.806;9.154;2023-02-12T09:19:10;38.10;;;26.23;;
10847;SDS011;5477;48.806;9.154;2023-02-12T09:21:38;40.63;;;28.47;;
10847;SDS011;5477;48.806;9.154;2023-02-12T09:24:07;34.43;;;26.13;;
10847;SDS011;5477;48.806;9.154;2023-02-12T09:26:35;39.93;;;28.83;;
10847;SDS011;5477;48.806;9.154;2023-02-12T09:29:05;34.63;;;25.07;;
10847;SDS011;5477;48.806;9.154;2023-02-12T09:31:33;40.17;;;26.87;;
10847;SDS011;5477;48.806;9.154;2023-02-12T09:34:02;38.43;;;26.40;;
10847;SDS011;5477;48.806;9.154;2023-02-12T09:36:32;36.67;;;25.47;;
10847;SDS011;5477;48.806;9.154;2023-02-12T09:39:02;35.33;;;24.90;;
10847;SDS011;5477;48.806;9.154;2023-02-12T09:44:34;34.87;;;24.70;;
10847;SDS011;5477;48.806;9.154;2023-02-12T09:47:12;35.90;;;24.77;;
10847;SDS011;5477;48.806;9.154;2023-02-12T09:49:48;31.33;;;23.73;;
10847;SDS011;5477;48.806;9.154;2023-02-12T09:52:39;42.07;;;26.53;;
10847;SDS011;5477;48.806;9.154;2023-02-12T09:55:09;46.77;;;27.87;;
10847;SDS011;5477;48.806;9.154;2023-02-12T09:57:41;39.57;;;25.47;;
10847;SDS011;5477;48.806;9.154;2023-02-12T10:00:13;43.60;;;28.80;;
10847;SDS011;5477;48.806;9.154;2023-02-12T10:02:44;41.30;;;26.87;;
10847;SDS011;5477;48.806;9.154;2023-02-12T10:05:18;34.37;;;24.83;;
10847;SDS011;5477;48.806;9.154;2023-02-12T10:08:01;34.37;;;24.87;;
10847;SDS011;5477;48.806;9.154;2023-02-12T10:10:45;34.27;;;25.07;;
10847;SDS011;5477;48.806;9.154;2023-02-12T10:13:21;40.60;;;25.53;;
10847;SDS011;5477;48.806;9.154;2023-02-12T10:16:00;42.53;;;25.83;;
10847;SDS011;5477;48.806;9.154;2023-02-12T10:18:47;36.03;;;23.47;;
10847;SDS011;5477;48.806;9.154;2023-02-12T10:21:30;30.63;;;23.60;;
10847;SDS011;5477;48.806;9.154;2023-02-12T10:24:11;29.20;;;19.90;;
10847;SDS011;5477;48.806;9.154;2023-02-12T10:27:08;27.53;;;19.30;;
10847;SDS011;5477;48.806;9.154;2023-02-12T10:29:40;22.73;;;17.37;;
10847;SDS011;5477;48.806;9.154;2023-02-12T10:32:12;24.97;;;18.03;;
10847;SDS011;5477;48.806;9.154;2023-02-12T10:34:49;24.07;;;16.33;;
10847;SDS011;5477;48.806;9.154;2023-02-12T10:37:20;22.57;;;16.00;;
10847;SDS011;5477;48.806;9.154;2023-02-12T10:39:55;23.70;;;16.83;;
10847;SDS011;5477;48.806;9.154;2023-02-12T10:42:31;21.30;;;15.47;;
10847;SDS011;5477;48.806;9.154;2023-02-12T10:45:05;23.80;;;15.67;;
10847;SDS011;5477;48.806;9.154;2023-02-12T10:47:40;24.57;;;16.37;;
10847;SDS011;5477;48.806;9.154;2023-02-12T10:50:15;23.00;;;16.47;;
10847;SDS011;5477;48.806;9.154;2023-02-12T10:52:49;22.67;;;15.43;;
10847;SDS011;5477;48.806;9.154;2023-02-12T10:55:25;25.27;;;16.33;;
10847;SDS011;5477;48.806;9.154;2023-02-12T10:57:55;26.97;;;18.30;;
10847;SDS011;5477;48.806;9.154;2023-02-12T11:00:25;24.07;;;13.67;;
10847;SDS011;5477;48.806;9.154;2023-02-12T11:03:03;18.90;;;13.40;;
10847;SDS011;5477;48.806;9.154;2023-02-12T11:05:33;15.60;;;11.00;;
10847;SDS011;5477;48.806;9.154;2023-02-12T11:08:03;12.83;;;10.70;;
10847;SDS011;5477;48.806;9.154;2023-02-12T11:10:32;14.47;;;9.60;;
10847;SDS011;5477;48.806;9.154;2023-02-12T11:22:04;10.47;;;6.50;;
10847;SDS011;5477;48.806;9.154;2023-02-12T11:24:35;9.37;;;6.30;;
10847;SDS011;5477;48.806;9.154;2023-02-12T11:27:10;9.10;;;6.43;;
10847;SDS011;5477;48.806;9.154;2023-02-12T11:29:40;9.90;;;6.87;;
10847;SDS011;5477;48.806;9.154;2023-02-12T11:32:10;10.33;;;7.17;;
10847;SDS011;5477;48.806;9.154;2023-02-12T11:34:42;11.50;;;6.80;;
10847;SDS011;5477;48.806;9.154;2023-02-12T11:37:14;8.97;;;6.87;;
10847;SDS011;5477;48.806;9.154;2023-02-12T11:39:45;9.43;;;6.53;;
10847;SDS011;5477;48.806;9.154;2023-02-12T11:42:15;10.63;;;7.10;;
10847;SDS011;5477;48.806;9.154;2023-02-12T11:44:47;10.77;;;6.50;;
10847;SDS011;5477;48.806;9.154;2023-02-12T11:47:17;8.13;;;6.47;;
10847;SDS011;5477;48.806;9.154;2023-02-12T11:49:48;10.07;;;7.03;;
10847;SDS011;5477;48.806;9.154;2023-02-12T11:52:20;8.93;;;6.13;;
10847;SDS011;5477;48.806;9.154;2023-02-12T11:54:50;8.53;;;6.33;;
10847;SDS011;5477;48.806;9.154;2023-02-12T11:57:34;9.20;;;6.53;;
10847;SDS011;5477;48.806;9.154;2023-02-12T12:00:03;11.80;;;6.00;;
10847;SDS011;5477;48.806;9.154;2023-02-12T12:02:38;7.23;;;5.70;;
10847;SDS011;5477;48.806;9.154;2023-02-12T12:05:11;7.10;;;5.10;;
10847;SDS011;5477;48.806;9.154;2023-02-12T12:07:44;8.47;;;5.63;;
10847;SDS011;5477;48.806;9.154;2023-02-12T12:10:19;7.57;;;5.17;;
10847;SDS011;5477;48.806;9.154;2023-02-12T12:12:53;6.80;;;5.27;;
10847;SDS011;5477;48.806;9.154;2023-02-12T12:15:24;9.90;;;5.50;;
10847;SDS011;5477;48.806;9.154;2023-02-12T12:18:15;8.30;;;5.50;;
10847;SDS011;5477;48.806;9.154;2023-02-12T12:21:10;8.37;;;6.00;;
10847;SDS011;5477;48.806;9.154;2023-02-12T12:23:48;9.67;;;5.97;;
10847;SDS011;5477;48.806;9.154;2023-02-12T12:26:20;6.93;;;5.60;;
10847;SDS011;5477;48.806;9.154;2023-02-12T12:28:51;6.97;;;5.60;;
10847;SDS011;5477;48.806;9.154;2023-02-12T12:31:24;8.40;;;5.83;;
10847;SDS011;5477;48.806;9.154;2023-02-12T12:33:59;10.23;;;5.83;;
10847;SDS011;5477;48.806;9.154;2023-02-12T12:36:45;8.50;;;5.60;;
10847;SDS011;5477;48.806;9.154;2023-02-12T12:39:34;7.50;;;5.23;;
10847;SDS011;5477;48.806;9.154;2023-02-12T12:42:17;7.07;;;5.23;;
10847;SDS011;5477;48.806;9.154;2023-02-12T12:45:04;6.73;;;5.27;;
10847;SDS011;5477;48.806;9.154;2023-02-12T12:47:41;7.83;;;5.30;;
10847;SDS011;5477;48.806;9.154;2023-02-12T12:50:25;8.03;;;5.30;;
10847;SDS011;5477;48.806;9.154;2023-02-12T12:53:03;7.83;;;5.43;;
10847;SDS011;5477;48.806;9.154;2023-02-12T12:55:52;8.90;;;5.03;;
10847;SDS011;5477;48.806;9.154;2023-02-12T12:58:57;9.33;;;6.57;;
10847;SDS011;5477;48.806;9.154;2023-02-12T13:01:48;7.90;;;6.03;;
10847;SDS011;5477;48.806;9.154;2023-02-12T13:04:36;7.67;;;4.83;;
10847;SDS011;5477;48.806;9.154;2023-02-12T13:07:24;6.57;;;5.47;;
10847;SDS011;5477;48.806;9.154;2023-02-12T13:15:53;8.23;;;5.37;;
10847;SDS011;5477;48.806;9.154;2023-02-12T13:18:31;9.03;;;5.63;;
10847;SDS011;5477;48.806;9.154;2023-02-12T13:21:10;7.30;;;5.17;;
10847;SDS011;5477;48.806;9.154;2023-02-12T13:23:45;11.70;;;6.07;;
10847;SDS011;5477;48.806;9.154;2023-02-12T13:26:18;8.40;;;5.37;;
10847;SDS011;5477;48.806;9.154;2023-02-12T13:28:57;9.80;;;7.20;;
10847;SDS011;5477;48.806;9.154;2023-02-12T13:31:30;20.00;;;10.47;;
10847;SDS011;5477;48.806;9.154;2023-02-12T13:34:04;7.23;;;4.37;;
10847;SDS011;5477;48.806;9.154;2023-02-12T13:36:36;10.77;;;7.20;;
10847;SDS011;5477;48.806;9.154;2023-02-12T13:39:06;11.23;;;6.97;;
10847;SDS011;5477;48.806;9.154;2023-02-12T13:41:43;6.20;;;4.97;;
10847;SDS011;5477;48.806;9.154;2023-02-12T13:44:17;15.30;;;8.63;;
10847;SDS011;5477;48.806;9.154;2023-02-12T13:46:54;11.97;;;7.13;;
10847;SDS011;5477;48.806;9.154;2023-02-12T13:49:29;18.03;;;10.03;;
10847;SDS011;5477;48.806;9.154;2023-02-12T13:52:06;10.47;;;5.47;;
10847;SDS011;5477;48.806;9.154;2023-02-12T13:54:40;6.73;;;4.60;;
10847;SDS011;5477;48.806;9.154;2023-02-12T13:57:21;8.70;;;6.23;;
10847;SDS011;5477;48.806;9.154;2023-02-12T13:59:50;16.17;;;8.50;;
10847;SDS011;5477;48.806;9.154;2023-02-12T14:05:26;7.63;;;4.77;;
10847;SDS011;5477;48.806;9.154;2023-02-12T14:07:57;5.97;;;4.30;;
10847;SDS011;5477;48.806;9.154;2023-02-12T14:10:32;6.63;;;4.67;;
10847;SDS011;5477;48.806;9.154;2023-02-12T14:13:10;6.63;;;4.27;;
10847;SDS011;5477;48.806;9.154;2023-02-12T14:15:43;8.03;;;4.10;;
10847;SDS011;5477;48.806;9.154;2023-02-12T14:18:23;6.30;;;4.50;;
10847;SDS011;5477;48.806;9.154;2023-02-12T14:35:49;9.60;;;5.67;;
10847;SDS011;5477;48.806;9.154;2023-02-12T14:41:36;9.43;;;5.03;;
10847;SDS011;5477;48.806;9.154;2023-02-12T14:47:11;19.63;;;8.87;;
10847;SDS011;5477;48.806;9.154;2023-02-12T14:50:13;13.07;;;5.70;;
10847;SDS011;5477;48.806;9.154;2023-02-12T14:52:46;8.17;;;4.30;;
10847;SDS011;5477;48.806;9.154;2023-02-12T14:55:23;9.27;;;4.80;;
10847;SDS011;5477;48.806;9.154;2023-02-12T14:57:59;8.20;;;5.20;;
10847;SDS011;5477;48.806;9.154;2023-02-12T15:00:31;7.80;;;4.73;;
10847;SDS011;5477;48.806;9.154;2023-02-12T15:03:06;19.97;;;9.77;;
10847;SDS011;5477;48.806;9.154;2023-02-12T15:05:46;10.00;;;5.00;;
10847;SDS011;5477;48.806;9.154;2023-02-12T15:08:30;8.67;;;5.33;;
10847;SDS011;5477;48.806;9.154;2023-02-12T15:11:05;11.37;;;5.33;;
10847;SDS011;5477;48.806;9.154;2023-02-12T15:13:48;15.40;;;6.87;;
10847;SDS011;5477;48.806;9.154;2023-02-12T15:16:22;25.17;;;11.23;;
10847;SDS011;5477;48.806;9.154;2023-02-12T15:18:57;6.43;;;3.87;;
10847;SDS011;5477;48.806;9.154;2023-02-12T15:21:30;11.63;;;5.93;;
10847;SDS011;5477;48.806;9.154;2023-02-12T15:24:00;8.47;;;4.67;;
10847;SDS011;5477;48.806;9.154;2023-02-12T15:26:32;19.83;;;9.23;;
10847;SDS011;5477;48.806;9.154;2023-02-12T15:29:02;18.87;;;9.13;;
10847;SDS011;5477;48.806;9.154;2023-02-12T15:31:31;14.43;;;9.50;;
10847;SDS011;5477;48.806;9.154;2023-02-12T15:34:02;4.83;;;4.33;;
10847;SDS011;5477;48.806;9.154;2023-02-12T15:36:32;3.63;;;3.17;;
10847;SDS011;5477;48.806;9.154;2023-02-12T15:39:04;3.83;;;2.70;;
10847;SDS011;5477;48.806;9.154;2023-02-12T15:41:35;4.00;;;3.20;;
10847;SDS011;5477;48.806;9.154;2023-02-12T15:44:17;3.03;;;2.40;;
10847;SDS011;5477;48.806;9.154;2023-02-12T15:46:57;2.70;;;2.20;;
10847;SDS011;5477;48.806;9.154;2023-02-12T15:49:28;2.73;;;2.10;;
10847;SDS011;5477;48.806;9.154;2023-02-12T15:51:59;2.67;;;2.10;;
10847;SDS011;5477;48.806;9.154;2023-02-12T15:54:30;3.90;;;2.30;;
10847;SDS011;5477;48.806;9.154;2023-02-12T15:56:58;2.10;;;1.90;;
10847;SDS011;5477;48.806;9.154;2023-02-12T15:59:27;4.03;;;2.17;;
10847;SDS011;5477;48.806;9.154;2023-02-12T16:01:57;4.67;;;2.30;;